sensor_id;sensor_type;location;lat;lon;timestamp;P1;durP1;ratioP1;P2;durP2;ratioP2
66626;SDS011;53498;50.422;14.912;2022-08-25T00:01:32;8.57;;;5.85;;
66626;SDS011;53498;50.422;14.912;2022-08-25T00:04:06;8.27;;;5.68;;
66626;SDS011;53498;50.422;14.912;2022-08-25T00:06:38;8.00;;;6.07;;
66626;SDS011;53498;50.422;14.912;2022-08-25T00:09:06;9.10;;;5.30;;
66626;SDS011;53498;50.422;14.912;2022-08-25T00:11:33;9.27;;;6.20;;
66626;SDS011;53498;50.422;14.912;2022-08-25T00:14:12;9.68;;;5.72;;
66626;SDS011;53498;50.422;14.912;2022-08-25T00:16:41;6.82;;;5.47;;
66626;SDS011;53498;50.422;14.912;2022-08-25T00:19:09;9.70;;;5.85;;
66626;SDS011;53498;50.422;14.912;2022-08-25T00:21:45;5.95;;;4.93;;
66626;SDS011;53498;50.422;14.912;2022-08-25T00:24:12;9.45;;;5.53;;
66626;SDS011;53498;50.422;14.912;2022-08-25T00:26:40;9.45;;;6.07;;
66626;SDS011;53498;50.422;14.912;2022-08-25T00:29:08;8.02;;;5.40;;
66626;SDS011;53498;50.422;14.912;2022-08-25T00:31:35;7.90;;;5.85;;
66626;SDS011;53498;50.422;14.912;2022-08-25T00:34:00;12.95;;;6.10;;
66626;SDS011;53498;50.422;14.912;2022-08-25T00:36:26;8.32;;;5.00;;
66626;SDS011;53498;50.422;14.912;2022-08-25T00:38:53;10.45;;;5.65;;
66626;SDS011;53498;50.422;14.912;2022-08-25T00:41:20;9.07;;;5.75;;
66626;SDS011;53498;50.422;14.912;2022-08-25T00:43:50;9.95;;;6.22;;
66626;SDS011;53498;50.422;14.912;2022-08-25T00:46:30;9.65;;;6.43;;
66626;SDS011;53498;50.422;14.912;2022-08-25T00:49:12;13.18;;;6.65;;
66626;SDS011;53498;50.422;14.912;2022-08-25T00:51:45;8.75;;;5.93;;
66626;SDS011;53498;50.422;14.912;2022-08-25T00:54:21;8.30;;;6.72;;
66626;SDS011;53498;50.422;14.912;2022-08-25T00:56:51;9.95;;;6.20;;
66626;SDS011;53498;50.422;14.912;2022-08-25T00:59:19;9.68;;;5.63;;
66626;SDS011;53498;50.422;14.912;2022-08-25T01:01:46;9.75;;;6.10;;
66626;SDS011;53498;50.422;14.912;2022-08-25T01:04:12;12.13;;;7.53;;
66626;SDS011;53498;50.422;14.912;2022-08-25T01:06:38;9.18;;;6.25;;
66626;SDS011;53498;50.422;14.912;2022-08-25T01:09:07;9.32;;;6.40;;
66626;SDS011;53498;50.422;14.912;2022-08-25T01:11:33;10.38;;;6.72;;
66626;SDS011;53498;50.422;14.912;2022-08-25T01:14:00;9.82;;;7.78;;
66626;SDS011;53498;50.422;14.912;2022-08-25T01:16:31;8.63;;;6.53;;
66626;SDS011;53498;50.422;14.912;2022-08-25T01:19:03;6.43;;;5.28;;
66626;SDS011;53498;50.422;14.912;2022-08-25T01:21:31;9.25;;;6.10;;
66626;SDS011;53498;50.422;14.912;2022-08-25T01:24:02;9.05;;;6.35;;
66626;SDS011;53498;50.422;14.912;2022-08-25T01:26:29;9.65;;;6.35;;
66626;SDS011;53498;50.422;14.912;2022-08-25T01:28:58;10.82;;;6.72;;
66626;SDS011;53498;50.422;14.912;2022-08-25T01:31:43;9.13;;;5.95;;
66626;SDS011;53498;50.422;14.912;2022-08-25T01:34:09;10.40;;;6.18;;
66626;SDS011;53498;50.422;14.912;2022-08-25T01:36:39;9.10;;;5.60;;
66626;SDS011;53498;50.422;14.912;2022-08-25T01:39:05;9.55;;;6.68;;
66626;SDS011;53498;50.422;14.912;2022-08-25T01:41:35;9.75;;;6.10;;
66626;SDS011;53498;50.422;14.912;2022-08-25T01:44:04;11.10;;;6.63;;
66626;SDS011;53498;50.422;14.912;2022-08-25T01:46:30;8.63;;;5.38;;
66626;SDS011;53498;50.422;14.912;2022-08-25T01:48:57;9.90;;;6.22;;
66626;SDS011;53498;50.422;14.912;2022-08-25T01:51:24;11.00;;;5.93;;
66626;SDS011;53498;50.422;14.912;2022-08-25T01:53:55;6.90;;;5.43;;
66626;SDS011;53498;50.422;14.912;2022-08-25T01:56:20;9.07;;;5.80;;
66626;SDS011;53498;50.422;14.912;2022-08-25T01:58:46;8.35;;;5.47;;
66626;SDS011;53498;50.422;14.912;2022-08-25T02:01:17;7.03;;;5.40;;
66626;SDS011;53498;50.422;14.912;2022-08-25T02:03:48;8.40;;;5.72;;
66626;SDS011;53498;50.422;14.912;2022-08-25T02:06:18;10.00;;;5.28;;
66626;SDS011;53498;50.422;14.912;2022-08-25T02:08:56;7.65;;;5.53;;
66626;SDS011;53498;50.422;14.912;2022-08-25T02:11:30;10.40;;;7.07;;
66626;SDS011;53498;50.422;14.912;2022-08-25T02:14:00;8.38;;;5.50;;
66626;SDS011;53498;50.422;14.912;2022-08-25T02:16:27;7.90;;;6.35;;
66626;SDS011;53498;50.422;14.912;2022-08-25T02:18:55;9.00;;;5.93;;
66626;SDS011;53498;50.422;14.912;2022-08-25T02:21:22;8.93;;;5.30;;
66626;SDS011;53498;50.422;14.912;2022-08-25T02:23:48;7.55;;;5.70;;
66626;SDS011;53498;50.422;14.912;2022-08-25T02:26:13;10.65;;;5.32;;
66626;SDS011;53498;50.422;14.912;2022-08-25T02:28:41;8.88;;;6.18;;
66626;SDS011;53498;50.422;14.912;2022-08-25T02:31:08;10.60;;;6.38;;
66626;SDS011;53498;50.422;14.912;2022-08-25T02:33:34;11.90;;;6.15;;
66626;SDS011;53498;50.422;14.912;2022-08-25T02:35:59;9.05;;;5.82;;
66626;SDS011;53498;50.422;14.912;2022-08-25T02:38:26;7.85;;;6.03;;
66626;SDS011;53498;50.422;14.912;2022-08-25T02:40:53;9.15;;;6.40;;
66626;SDS011;53498;50.422;14.912;2022-08-25T02:43:19;11.25;;;6.38;;
66626;SDS011;53498;50.422;14.912;2022-08-25T02:45:45;9.95;;;6.07;;
66626;SDS011;53498;50.422;14.912;2022-08-25T02:48:11;8.15;;;5.43;;
66626;SDS011;53498;50.422;14.912;2022-08-25T02:50:37;10.23;;;6.38;;
66626;SDS011;53498;50.422;14.912;2022-08-25T02:53:03;8.65;;;6.60;;
66626;SDS011;53498;50.422;14.912;2022-08-25T02:55:28;8.23;;;5.47;;
66626;SDS011;53498;50.422;14.912;2022-08-25T02:57:54;10.13;;;6.88;;
66626;SDS011;53498;50.422;14.912;2022-08-25T03:00:19;11.95;;;6.90;;
66626;SDS011;53498;50.422;14.912;2022-08-25T03:02:45;10.18;;;6.40;;
66626;SDS011;53498;50.422;14.912;2022-08-25T03:05:12;8.52;;;6.40;;
66626;SDS011;53498;50.422;14.912;2022-08-25T03:07:39;12.13;;;6.18;;
66626;SDS011;53498;50.422;14.912;2022-08-25T03:10:06;9.00;;;6.13;;
66626;SDS011;53498;50.422;14.912;2022-08-25T03:12:34;7.88;;;6.22;;
66626;SDS011;53498;50.422;14.912;2022-08-25T03:15:01;12.32;;;6.85;;
66626;SDS011;53498;50.422;14.912;2022-08-25T03:17:28;9.70;;;7.10;;
66626;SDS011;53498;50.422;14.912;2022-08-25T03:19:53;10.32;;;6.35;;
66626;SDS011;53498;50.422;14.912;2022-08-25T03:22:19;9.40;;;7.05;;
66626;SDS011;53498;50.422;14.912;2022-08-25T03:24:45;10.23;;;6.40;;
66626;SDS011;53498;50.422;14.912;2022-08-25T03:27:10;14.85;;;7.45;;
66626;SDS011;53498;50.422;14.912;2022-08-25T03:29:36;13.45;;;6.78;;
66626;SDS011;53498;50.422;14.912;2022-08-25T03:32:02;12.00;;;6.60;;
66626;SDS011;53498;50.422;14.912;2022-08-25T03:34:28;8.95;;;7.03;;
66626;SDS011;53498;50.422;14.912;2022-08-25T03:36:55;11.68;;;7.65;;
66626;SDS011;53498;50.422;14.912;2022-08-25T03:39:22;14.88;;;7.20;;
66626;SDS011;53498;50.422;14.912;2022-08-25T03:41:49;13.70;;;7.65;;
66626;SDS011;53498;50.422;14.912;2022-08-25T03:44:16;11.07;;;7.85;;
66626;SDS011;53498;50.422;14.912;2022-08-25T03:46:43;14.80;;;6.75;;
66626;SDS011;53498;50.422;14.912;2022-08-25T03:49:12;13.75;;;6.45;;
66626;SDS011;53498;50.422;14.912;2022-08-25T03:51:42;12.32;;;6.50;;
66626;SDS011;53498;50.422;14.912;2022-08-25T03:54:11;9.45;;;6.70;;
66626;SDS011;53498;50.422;14.912;2022-08-25T03:56:40;9.48;;;6.47;;
66626;SDS011;53498;50.422;14.912;2022-08-25T03:59:06;10.90;;;7.45;;
66626;SDS011;53498;50.422;14.912;2022-08-25T04:01:35;10.48;;;7.55;;
66626;SDS011;53498;50.422;14.912;2022-08-25T04:04:02;13.18;;;7.47;;
66626;SDS011;53498;50.422;14.912;2022-08-25T04:06:28;10.05;;;6.40;;
66626;SDS011;53498;50.422;14.912;2022-08-25T04:08:54;10.15;;;6.57;;
66626;SDS011;53498;50.422;14.912;2022-08-25T04:11:22;10.38;;;6.53;;
66626;SDS011;53498;50.422;14.912;2022-08-25T04:13:48;10.13;;;7.10;;
66626;SDS011;53498;50.422;14.912;2022-08-25T04:16:15;12.52;;;7.18;;
66626;SDS011;53498;50.422;14.912;2022-08-25T04:18:43;11.90;;;6.97;;
66626;SDS011;53498;50.422;14.912;2022-08-25T04:21:11;10.43;;;7.05;;
66626;SDS011;53498;50.422;14.912;2022-08-25T04:23:40;8.82;;;6.20;;
66626;SDS011;53498;50.422;14.912;2022-08-25T04:26:11;10.93;;;6.15;;
66626;SDS011;53498;50.422;14.912;2022-08-25T04:28:38;9.85;;;6.90;;
66626;SDS011;53498;50.422;14.912;2022-08-25T04:31:05;12.15;;;7.32;;
66626;SDS011;53498;50.422;14.912;2022-08-25T04:33:35;8.55;;;6.43;;
66626;SDS011;53498;50.422;14.912;2022-08-25T04:36:02;11.18;;;7.28;;
66626;SDS011;53498;50.422;14.912;2022-08-25T04:38:36;13.32;;;7.80;;
66626;SDS011;53498;50.422;14.912;2022-08-25T04:41:05;7.10;;;6.15;;
66626;SDS011;53498;50.422;14.912;2022-08-25T04:43:31;11.02;;;6.43;;
66626;SDS011;53498;50.422;14.912;2022-08-25T04:45:58;9.50;;;6.47;;
66626;SDS011;53498;50.422;14.912;2022-08-25T04:48:24;8.15;;;6.40;;
66626;SDS011;53498;50.422;14.912;2022-08-25T04:50:49;8.25;;;6.45;;
66626;SDS011;53498;50.422;14.912;2022-08-25T04:53:16;10.15;;;6.50;;
66626;SDS011;53498;50.422;14.912;2022-08-25T04:55:42;11.65;;;6.20;;
66626;SDS011;53498;50.422;14.912;2022-08-25T04:58:10;9.27;;;6.60;;
66626;SDS011;53498;50.422;14.912;2022-08-25T05:00:36;13.88;;;7.75;;
66626;SDS011;53498;50.422;14.912;2022-08-25T05:03:03;11.82;;;6.50;;
66626;SDS011;53498;50.422;14.912;2022-08-25T05:05:29;8.45;;;6.90;;
66626;SDS011;53498;50.422;14.912;2022-08-25T05:07:59;10.20;;;7.07;;
66626;SDS011;53498;50.422;14.912;2022-08-25T05:10:24;7.82;;;6.28;;
66626;SDS011;53498;50.422;14.912;2022-08-25T05:12:50;8.55;;;6.85;;
66626;SDS011;53498;50.422;14.912;2022-08-25T05:15:16;11.13;;;6.38;;
66626;SDS011;53498;50.422;14.912;2022-08-25T05:18:00;10.25;;;6.78;;
66626;SDS011;53498;50.422;14.912;2022-08-25T05:20:26;8.02;;;5.85;;
66626;SDS011;53498;50.422;14.912;2022-08-25T05:22:51;10.82;;;6.75;;
66626;SDS011;53498;50.422;14.912;2022-08-25T05:25:17;9.10;;;6.60;;
66626;SDS011;53498;50.422;14.912;2022-08-25T05:27:43;9.70;;;6.68;;
66626;SDS011;53498;50.422;14.912;2022-08-25T05:30:09;11.40;;;6.18;;
66626;SDS011;53498;50.422;14.912;2022-08-25T05:32:36;9.10;;;6.63;;
66626;SDS011;53498;50.422;14.912;2022-08-25T05:35:03;7.60;;;5.55;;
66626;SDS011;53498;50.422;14.912;2022-08-25T05:37:29;10.65;;;6.63;;
66626;SDS011;53498;50.422;14.912;2022-08-25T05:39:55;8.55;;;6.15;;
66626;SDS011;53498;50.422;14.912;2022-08-25T05:42:21;9.23;;;6.22;;
66626;SDS011;53498;50.422;14.912;2022-08-25T05:44:48;11.98;;;6.32;;
66626;SDS011;53498;50.422;14.912;2022-08-25T05:47:13;9.95;;;5.50;;
66626;SDS011;53498;50.422;14.912;2022-08-25T05:49:39;10.10;;;5.88;;
66626;SDS011;53498;50.422;14.912;2022-08-25T05:52:04;10.65;;;6.30;;
66626;SDS011;53498;50.422;14.912;2022-08-25T05:54:30;11.10;;;6.47;;
66626;SDS011;53498;50.422;14.912;2022-08-25T05:56:56;9.40;;;5.95;;
66626;SDS011;53498;50.422;14.912;2022-08-25T05:59:22;8.63;;;6.75;;
66626;SDS011;53498;50.422;14.912;2022-08-25T06:01:48;14.57;;;6.60;;
66626;SDS011;53498;50.422;14.912;2022-08-25T06:06:57;10.38;;;5.90;;
66626;SDS011;53498;50.422;14.912;2022-08-25T06:09:29;9.23;;;5.75;;
66626;SDS011;53498;50.422;14.912;2022-08-25T06:11:55;15.00;;;6.20;;
66626;SDS011;53498;50.422;14.912;2022-08-25T06:14:20;10.20;;;6.22;;
66626;SDS011;53498;50.422;14.912;2022-08-25T06:16:47;10.32;;;6.70;;
66626;SDS011;53498;50.422;14.912;2022-08-25T06:19:17;12.43;;;6.18;;
66626;SDS011;53498;50.422;14.912;2022-08-25T06:21:43;9.95;;;6.53;;
66626;SDS011;53498;50.422;14.912;2022-08-25T06:24:08;9.93;;;6.72;;
66626;SDS011;53498;50.422;14.912;2022-08-25T06:26:35;11.77;;;6.68;;
66626;SDS011;53498;50.422;14.912;2022-08-25T06:29:01;8.38;;;6.35;;
66626;SDS011;53498;50.422;14.912;2022-08-25T06:31:27;10.35;;;6.20;;
66626;SDS011;53498;50.422;14.912;2022-08-25T06:33:53;8.60;;;5.70;;
66626;SDS011;53498;50.422;14.912;2022-08-25T06:36:19;9.15;;;5.85;;
66626;SDS011;53498;50.422;14.912;2022-08-25T06:38:45;12.98;;;6.85;;
66626;SDS011;53498;50.422;14.912;2022-08-25T06:41:11;12.13;;;6.32;;
66626;SDS011;53498;50.422;14.912;2022-08-25T06:43:38;10.52;;;5.85;;
66626;SDS011;53498;50.422;14.912;2022-08-25T06:46:12;9.77;;;5.88;;
66626;SDS011;53498;50.422;14.912;2022-08-25T06:48:40;10.70;;;6.75;;
66626;SDS011;53498;50.422;14.912;2022-08-25T06:51:07;10.18;;;6.07;;
66626;SDS011;53498;50.422;14.912;2022-08-25T06:53:34;8.30;;;5.40;;
66626;SDS011;53498;50.422;14.912;2022-08-25T06:56:01;10.63;;;6.60;;
66626;SDS011;53498;50.422;14.912;2022-08-25T06:58:26;12.18;;;6.38;;
66626;SDS011;53498;50.422;14.912;2022-08-25T07:00:52;5.75;;;4.15;;
66626;SDS011;53498;50.422;14.912;2022-08-25T07:03:18;7.40;;;5.30;;
66626;SDS011;53498;50.422;14.912;2022-08-25T07:05:53;7.78;;;5.43;;
66626;SDS011;53498;50.422;14.912;2022-08-25T07:08:20;9.25;;;5.63;;
66626;SDS011;53498;50.422;14.912;2022-08-25T07:10:46;8.02;;;5.88;;
66626;SDS011;53498;50.422;14.912;2022-08-25T07:13:12;10.05;;;5.47;;
66626;SDS011;53498;50.422;14.912;2022-08-25T07:15:38;15.68;;;6.72;;
66626;SDS011;53498;50.422;14.912;2022-08-25T07:18:07;9.55;;;5.68;;
66626;SDS011;53498;50.422;14.912;2022-08-25T07:20:36;8.68;;;4.95;;
66626;SDS011;53498;50.422;14.912;2022-08-25T07:23:03;13.50;;;6.10;;
66626;SDS011;53498;50.422;14.912;2022-08-25T07:25:29;9.68;;;6.82;;
66626;SDS011;53498;50.422;14.912;2022-08-25T07:27:55;10.02;;;6.85;;
66626;SDS011;53498;50.422;14.912;2022-08-25T07:30:20;13.32;;;7.63;;
66626;SDS011;53498;50.422;14.912;2022-08-25T07:32:47;10.95;;;7.13;;
66626;SDS011;53498;50.422;14.912;2022-08-25T07:35:13;12.70;;;7.47;;
66626;SDS011;53498;50.422;14.912;2022-08-25T07:37:42;9.98;;;6.97;;
66626;SDS011;53498;50.422;14.912;2022-08-25T07:40:18;11.35;;;7.30;;
66626;SDS011;53498;50.422;14.912;2022-08-25T07:42:50;14.48;;;6.80;;
66626;SDS011;53498;50.422;14.912;2022-08-25T07:45:17;8.68;;;6.35;;
66626;SDS011;53498;50.422;14.912;2022-08-25T07:47:44;12.77;;;7.43;;
66626;SDS011;53498;50.422;14.912;2022-08-25T07:50:10;9.10;;;6.15;;
66626;SDS011;53498;50.422;14.912;2022-08-25T07:52:37;16.75;;;7.85;;
66626;SDS011;53498;50.422;14.912;2022-08-25T07:55:04;13.77;;;7.40;;
66626;SDS011;53498;50.422;14.912;2022-08-25T07:57:38;9.88;;;6.75;;
66626;SDS011;53498;50.422;14.912;2022-08-25T08:00:05;10.77;;;6.50;;
66626;SDS011;53498;50.422;14.912;2022-08-25T08:02:32;10.95;;;6.13;;
66626;SDS011;53498;50.422;14.912;2022-08-25T08:04:57;11.10;;;7.05;;
66626;SDS011;53498;50.422;14.912;2022-08-25T08:07:24;15.82;;;7.30;;
66626;SDS011;53498;50.422;14.912;2022-08-25T08:09:51;9.88;;;5.72;;
66626;SDS011;53498;50.422;14.912;2022-08-25T08:12:18;10.30;;;5.85;;
66626;SDS011;53498;50.422;14.912;2022-08-25T08:14:43;8.70;;;6.20;;
66626;SDS011;53498;50.422;14.912;2022-08-25T08:17:10;12.70;;;6.70;;
66626;SDS011;53498;50.422;14.912;2022-08-25T08:19:37;12.02;;;6.53;;
66626;SDS011;53498;50.422;14.912;2022-08-25T08:22:03;6.75;;;4.68;;
66626;SDS011;53498;50.422;14.912;2022-08-25T08:24:30;10.98;;;5.13;;
66626;SDS011;53498;50.422;14.912;2022-08-25T08:26:56;7.90;;;5.18;;
66626;SDS011;53498;50.422;14.912;2022-08-25T08:29:22;10.70;;;5.32;;
66626;SDS011;53498;50.422;14.912;2022-08-25T08:31:48;11.55;;;5.40;;
66626;SDS011;53498;50.422;14.912;2022-08-25T08:34:14;9.20;;;4.60;;
66626;SDS011;53498;50.422;14.912;2022-08-25T08:36:40;11.57;;;5.25;;
66626;SDS011;53498;50.422;14.912;2022-08-25T08:39:05;10.02;;;4.60;;
66626;SDS011;53498;50.422;14.912;2022-08-25T08:41:39;7.75;;;5.32;;
66626;SDS011;53498;50.422;14.912;2022-08-25T08:52:19;9.80;;;5.57;;
66626;SDS011;53498;50.422;14.912;2022-08-25T08:54:53;12.40;;;5.72;;
66626;SDS011;53498;50.422;14.912;2022-08-25T08:57:25;10.98;;;5.93;;
66626;SDS011;53498;50.422;14.912;2022-08-25T08:59:54;10.30;;;6.43;;
66626;SDS011;53498;50.422;14.912;2022-08-25T09:02:47;12.65;;;4.82;;
66626;SDS011;53498;50.422;14.912;2022-08-25T09:05:13;8.02;;;3.78;;
66626;SDS011;53498;50.422;14.912;2022-08-25T09:07:44;10.23;;;4.30;;
66626;SDS011;53498;50.422;14.912;2022-08-25T09:10:17;11.93;;;4.55;;
66626;SDS011;53498;50.422;14.912;2022-08-25T09:18:37;5.15;;;4.30;;
66626;SDS011;53498;50.422;14.912;2022-08-25T09:24:20;8.88;;;4.63;;
66626;SDS011;53498;50.422;14.912;2022-08-25T09:27:01;11.40;;;4.00;;
66626;SDS011;53498;50.422;14.912;2022-08-25T09:29:57;17.83;;;5.65;;
66626;SDS011;53498;50.422;14.912;2022-08-25T09:32:27;8.20;;;3.58;;
66626;SDS011;53498;50.422;14.912;2022-08-25T09:34:54;8.38;;;3.33;;
66626;SDS011;53498;50.422;14.912;2022-08-25T09:37:23;9.70;;;3.92;;
66626;SDS011;53498;50.422;14.912;2022-08-25T09:39:49;7.82;;;3.92;;
66626;SDS011;53498;50.422;14.912;2022-08-25T09:42:23;8.88;;;4.20;;
66626;SDS011;53498;50.422;14.912;2022-08-25T09:45:12;13.10;;;4.70;;
66626;SDS011;53498;50.422;14.912;2022-08-25T09:47:43;13.02;;;3.78;;
66626;SDS011;53498;50.422;14.912;2022-08-25T09:50:16;6.88;;;3.72;;
66626;SDS011;53498;50.422;14.912;2022-08-25T09:52:44;7.78;;;3.47;;
66626;SDS011;53498;50.422;14.912;2022-08-25T10:02:37;9.93;;;3.80;;
66626;SDS011;53498;50.422;14.912;2022-08-25T10:05:23;8.45;;;4.10;;
66626;SDS011;53498;50.422;14.912;2022-08-25T10:07:52;11.23;;;4.70;;
66626;SDS011;53498;50.422;14.912;2022-08-25T10:10:30;10.52;;;4.35;;
66626;SDS011;53498;50.422;14.912;2022-08-25T10:12:57;7.82;;;3.90;;
66626;SDS011;53498;50.422;14.912;2022-08-25T10:17:53;11.18;;;3.92;;
66626;SDS011;53498;50.422;14.912;2022-08-25T10:20:21;9.60;;;4.20;;
66626;SDS011;53498;50.422;14.912;2022-08-25T10:22:48;12.98;;;5.55;;
66626;SDS011;53498;50.422;14.912;2022-08-25T10:25:15;9.90;;;5.10;;
66626;SDS011;53498;50.422;14.912;2022-08-25T10:36:21;9.95;;;4.95;;
66626;SDS011;53498;50.422;14.912;2022-08-25T10:47:20;13.15;;;5.20;;
66626;SDS011;53498;50.422;14.912;2022-08-25T10:52:57;18.58;;;4.60;;
66626;SDS011;53498;50.422;14.912;2022-08-25T10:58:07;14.68;;;5.00;;
66626;SDS011;53498;50.422;14.912;2022-08-25T11:00:39;8.25;;;3.63;;
66626;SDS011;53498;50.422;14.912;2022-08-25T11:08:35;11.20;;;4.90;;
66626;SDS011;53498;50.422;14.912;2022-08-25T11:11:05;10.85;;;4.28;;
66626;SDS011;53498;50.422;14.912;2022-08-25T11:13:42;4.78;;;3.53;;
66626;SDS011;53498;50.422;14.912;2022-08-25T11:16:19;9.73;;;4.18;;
66626;SDS011;53498;50.422;14.912;2022-08-25T11:19:15;12.38;;;4.03;;
66626;SDS011;53498;50.422;14.912;2022-08-25T11:24:51;9.52;;;5.20;;
66626;SDS011;53498;50.422;14.912;2022-08-25T11:27:35;5.63;;;4.63;;
66626;SDS011;53498;50.422;14.912;2022-08-25T11:30:10;9.70;;;3.65;;
66626;SDS011;53498;50.422;14.912;2022-08-25T11:32:38;8.13;;;3.63;;
66626;SDS011;53498;50.422;14.912;2022-08-25T11:35:05;13.93;;;5.03;;
66626;SDS011;53498;50.422;14.912;2022-08-25T11:37:34;6.82;;;3.60;;
66626;SDS011;53498;50.422;14.912;2022-08-25T11:40:18;11.10;;;4.05;;
66626;SDS011;53498;50.422;14.912;2022-08-25T11:48:21;11.25;;;3.97;;
66626;SDS011;53498;50.422;14.912;2022-08-25T11:51:11;6.85;;;3.80;;
66626;SDS011;53498;50.422;14.912;2022-08-25T11:56:49;11.98;;;4.25;;
66626;SDS011;53498;50.422;14.912;2022-08-25T12:02:30;9.27;;;4.13;;
66626;SDS011;53498;50.422;14.912;2022-08-25T12:05:00;10.25;;;4.45;;
66626;SDS011;53498;50.422;14.912;2022-08-25T12:07:29;7.50;;;4.30;;
66626;SDS011;53498;50.422;14.912;2022-08-25T12:16:02;8.40;;;4.28;;
66626;SDS011;53498;50.422;14.912;2022-08-25T12:29:15;6.90;;;4.15;;
66626;SDS011;53498;50.422;14.912;2022-08-25T12:37:22;11.38;;;4.43;;
66626;SDS011;53498;50.422;14.912;2022-08-25T12:42:28;10.00;;;4.28;;
66626;SDS011;53498;50.422;14.912;2022-08-25T12:47:40;7.18;;;3.25;;
66626;SDS011;53498;50.422;14.912;2022-08-25T12:53:10;9.25;;;3.95;;
66626;SDS011;53498;50.422;14.912;2022-08-25T12:55:59;8.32;;;4.40;;
66626;SDS011;53498;50.422;14.912;2022-08-25T12:58:47;8.60;;;5.20;;
66626;SDS011;53498;50.422;14.912;2022-08-25T13:04:07;9.25;;;4.93;;
66626;SDS011;53498;50.422;14.912;2022-08-25T13:06:57;9.43;;;4.38;;
66626;SDS011;53498;50.422;14.912;2022-08-25T13:12:49;8.93;;;4.35;;
66626;SDS011;53498;50.422;14.912;2022-08-25T13:18:17;8.80;;;4.13;;
66626;SDS011;53498;50.422;14.912;2022-08-25T13:20:52;6.70;;;4.10;;
66626;SDS011;53498;50.422;14.912;2022-08-25T13:23:26;8.90;;;4.50;;
66626;SDS011;53498;50.422;14.912;2022-08-25T13:25:52;5.70;;;3.65;;
66626;SDS011;53498;50.422;14.912;2022-08-25T13:28:29;7.45;;;3.50;;
66626;SDS011;53498;50.422;14.912;2022-08-25T13:33:34;7.82;;;3.70;;
66626;SDS011;53498;50.422;14.912;2022-08-25T13:36:01;5.63;;;3.45;;
66626;SDS011;53498;50.422;14.912;2022-08-25T13:38:47;7.30;;;3.67;;
66626;SDS011;53498;50.422;14.912;2022-08-25T13:41:17;9.15;;;4.60;;
66626;SDS011;53498;50.422;14.912;2022-08-25T13:43:45;10.43;;;3.67;;
66626;SDS011;53498;50.422;14.912;2022-08-25T13:46:11;8.93;;;3.97;;
66626;SDS011;53498;50.422;14.912;2022-08-25T13:48:38;8.30;;;4.07;;
66626;SDS011;53498;50.422;14.912;2022-08-25T13:51:06;11.07;;;4.15;;
66626;SDS011;53498;50.422;14.912;2022-08-25T13:53:47;7.57;;;3.67;;
66626;SDS011;53498;50.422;14.912;2022-08-25T13:56:21;11.82;;;3.80;;
66626;SDS011;53498;50.422;14.912;2022-08-25T13:58:48;6.53;;;3.28;;
66626;SDS011;53498;50.422;14.912;2022-08-25T14:03:44;6.85;;;3.67;;
66626;SDS011;53498;50.422;14.912;2022-08-25T14:08:41;4.10;;;3.05;;
66626;SDS011;53498;50.422;14.912;2022-08-25T14:11:12;9.27;;;4.45;;
66626;SDS011;53498;50.422;14.912;2022-08-25T14:13:58;7.03;;;3.88;;
66626;SDS011;53498;50.422;14.912;2022-08-25T14:16:38;7.60;;;4.28;;
66626;SDS011;53498;50.422;14.912;2022-08-25T14:19:11;12.15;;;3.70;;
66626;SDS011;53498;50.422;14.912;2022-08-25T14:21:39;7.55;;;2.60;;
66626;SDS011;53498;50.422;14.912;2022-08-25T14:24:05;7.75;;;3.80;;
66626;SDS011;53498;50.422;14.912;2022-08-25T14:26:31;7.05;;;2.83;;
66626;SDS011;53498;50.422;14.912;2022-08-25T14:28:57;10.15;;;4.70;;
66626;SDS011;53498;50.422;14.912;2022-08-25T14:31:24;7.60;;;3.92;;
66626;SDS011;53498;50.422;14.912;2022-08-25T14:34:00;8.63;;;3.92;;
66626;SDS011;53498;50.422;14.912;2022-08-25T14:36:29;7.28;;;3.80;;
66626;SDS011;53498;50.422;14.912;2022-08-25T14:38:57;11.70;;;4.90;;
66626;SDS011;53498;50.422;14.912;2022-08-25T14:41:23;5.05;;;2.35;;
66626;SDS011;53498;50.422;14.912;2022-08-25T14:43:50;7.22;;;3.60;;
66626;SDS011;53498;50.422;14.912;2022-08-25T14:46:26;8.73;;;3.47;;
66626;SDS011;53498;50.422;14.912;2022-08-25T14:48:58;9.60;;;3.97;;
66626;SDS011;53498;50.422;14.912;2022-08-25T14:51:26;13.00;;;5.15;;
66626;SDS011;53498;50.422;14.912;2022-08-25T14:53:54;8.35;;;3.20;;
66626;SDS011;53498;50.422;14.912;2022-08-25T14:56:22;8.70;;;3.78;;
66626;SDS011;53498;50.422;14.912;2022-08-25T14:58:48;7.50;;;4.07;;
66626;SDS011;53498;50.422;14.912;2022-08-25T15:01:14;4.75;;;3.25;;
66626;SDS011;53498;50.422;14.912;2022-08-25T15:03:43;6.40;;;3.58;;
66626;SDS011;53498;50.422;14.912;2022-08-25T15:06:12;8.48;;;3.88;;
66626;SDS011;53498;50.422;14.912;2022-08-25T15:08:39;8.43;;;3.92;;
66626;SDS011;53498;50.422;14.912;2022-08-25T15:11:24;12.35;;;4.32;;
66626;SDS011;53498;50.422;14.912;2022-08-25T15:13:51;8.60;;;3.95;;
66626;SDS011;53498;50.422;14.912;2022-08-25T15:16:25;7.60;;;3.70;;
66626;SDS011;53498;50.422;14.912;2022-08-25T15:18:51;9.60;;;3.97;;
66626;SDS011;53498;50.422;14.912;2022-08-25T15:21:24;7.82;;;3.58;;
66626;SDS011;53498;50.422;14.912;2022-08-25T15:23:50;5.72;;;3.47;;
66626;SDS011;53498;50.422;14.912;2022-08-25T15:26:16;4.85;;;3.72;;
66626;SDS011;53498;50.422;14.912;2022-08-25T15:28:43;9.15;;;4.32;;
66626;SDS011;53498;50.422;14.912;2022-08-25T15:31:16;9.00;;;3.75;;
66626;SDS011;53498;50.422;14.912;2022-08-25T15:33:44;6.35;;;4.38;;
66626;SDS011;53498;50.422;14.912;2022-08-25T15:36:10;10.35;;;4.55;;
66626;SDS011;53498;50.422;14.912;2022-08-25T15:38:39;12.27;;;4.80;;
66626;SDS011;53498;50.422;14.912;2022-08-25T15:41:08;12.10;;;4.72;;
66626;SDS011;53498;50.422;14.912;2022-08-25T15:43:35;10.68;;;4.38;;
66626;SDS011;53498;50.422;14.912;2022-08-25T15:46:02;8.70;;;4.10;;
66626;SDS011;53498;50.422;14.912;2022-08-25T15:48:28;8.95;;;4.72;;
66626;SDS011;53498;50.422;14.912;2022-08-25T15:50:54;8.55;;;5.53;;
66626;SDS011;53498;50.422;14.912;2022-08-25T15:53:24;10.77;;;5.53;;
66626;SDS011;53498;50.422;14.912;2022-08-25T15:55:50;8.80;;;4.38;;
66626;SDS011;53498;50.422;14.912;2022-08-25T15:58:17;13.05;;;5.50;;
66626;SDS011;53498;50.422;14.912;2022-08-25T16:00:43;11.63;;;4.85;;
66626;SDS011;53498;50.422;14.912;2022-08-25T16:03:09;7.40;;;4.43;;
66626;SDS011;53498;50.422;14.912;2022-08-25T16:05:36;5.38;;;4.35;;
66626;SDS011;53498;50.422;14.912;2022-08-25T16:08:02;8.55;;;4.53;;
66626;SDS011;53498;50.422;14.912;2022-08-25T16:10:31;9.93;;;5.20;;
66626;SDS011;53498;50.422;14.912;2022-08-25T16:12:57;7.75;;;4.22;;
66626;SDS011;53498;50.422;14.912;2022-08-25T16:15:23;7.30;;;4.88;;
66626;SDS011;53498;50.422;14.912;2022-08-25T16:17:48;13.88;;;5.57;;
66626;SDS011;53498;50.422;14.912;2022-08-25T16:20:14;14.23;;;4.97;;
66626;SDS011;53498;50.422;14.912;2022-08-25T16:22:41;8.98;;;5.60;;
66626;SDS011;53498;50.422;14.912;2022-08-25T16:25:12;6.70;;;4.25;;
66626;SDS011;53498;50.422;14.912;2022-08-25T16:27:38;10.77;;;4.75;;
66626;SDS011;53498;50.422;14.912;2022-08-25T16:30:05;11.52;;;5.30;;
66626;SDS011;53498;50.422;14.912;2022-08-25T16:32:34;8.82;;;5.28;;
66626;SDS011;53498;50.422;14.912;2022-08-25T16:35:00;13.27;;;4.05;;
66626;SDS011;53498;50.422;14.912;2022-08-25T16:37:28;9.20;;;5.07;;
66626;SDS011;53498;50.422;14.912;2022-08-25T16:39:55;7.55;;;5.97;;